sensor_id;sensor_type;location;lat;lon;timestamp;P1;durP1;ratioP1;P2;durP2;ratioP2
21517;SDS011;61765;45.794;24.150;2024-03-02T00:03:04;6.75;;;2.53;;
21517;SDS011;61765;45.794;24.150;2024-03-02T00:11:12;4.25;;;2.08;;
21517;SDS011;61765;45.794;24.150;2024-03-02T00:19:21;5.72;;;2.47;;
21517;SDS011;61765;45.794;24.150;2024-03-02T00:27:27;5.50;;;2.42;;
21517;SDS011;61765;45.794;24.150;2024-03-02T00:35:35;6.43;;;2.50;;
21517;SDS011;61765;45.794;24.150;2024-03-02T00:43:42;3.72;;;2.20;;
21517;SDS011;61765;45.794;24.150;2024-03-02T00:51:52;5.32;;;2.67;;
21517;SDS011;61765;45.794;24.150;2024-03-02T00:59:59;8.60;;;3.13;;
21517;SDS011;61765;45.794;24.150;2024-03-02T01:08:09;6.13;;;2.47;;
21517;SDS011;61765;45.794;24.150;2024-03-02T01:16:14;6.40;;;3.17;;
21517;SDS011;61765;45.794;24.150;2024-03-02T01:24:23;9.30;;;4.28;;
21517;SDS011;61765;45.794;24.150;2024-03-02T01:32:28;9.85;;;4.22;;
21517;SDS011;61765;45.794;24.150;2024-03-02T01:40:37;7.35;;;3.25;;
21517;SDS011;61765;45.794;24.150;2024-03-02T01:48:43;9.25;;;3.10;;
21517;SDS011;61765;45.794;24.150;2024-03-02T01:56:52;4.50;;;2.35;;
21517;SDS011;61765;45.794;24.150;2024-03-02T02:04:58;6.20;;;3.17;;
21517;SDS011;61765;45.794;24.150;2024-03-02T02:13:06;7.20;;;2.92;;
21517;SDS011;61765;45.794;24.150;2024-03-02T02:21:12;6.70;;;3.17;;
21517;SDS011;61765;45.794;24.150;2024-03-02T02:29:20;9.20;;;3.47;;
21517;SDS011;61765;45.794;24.150;2024-03-02T02:37:26;12.07;;;2.78;;
21517;SDS011;61765;45.794;24.150;2024-03-02T02:45:35;6.18;;;3.15;;
21517;SDS011;61765;45.794;24.150;2024-03-02T02:53:40;5.45;;;3.28;;
21517;SDS011;61765;45.794;24.150;2024-03-02T03:01:49;11.02;;;3.50;;
21517;SDS011;61765;45.794;24.150;2024-03-02T03:09:56;6.93;;;3.20;;
21517;SDS011;61765;45.794;24.150;2024-03-02T03:18:05;7.07;;;3.92;;
21517;SDS011;61765;45.794;24.150;2024-03-02T03:26:12;7.43;;;3.65;;
21517;SDS011;61765;45.794;24.150;2024-03-02T03:34:21;12.63;;;4.60;;
21517;SDS011;61765;45.794;24.150;2024-03-02T03:42:27;9.18;;;4.90;;
21517;SDS011;61765;45.794;24.150;2024-03-02T03:50:35;7.72;;;3.40;;
21517;SDS011;61765;45.794;24.150;2024-03-02T03:58:41;5.93;;;3.55;;
21517;SDS011;61765;45.794;24.150;2024-03-02T04:06:49;6.72;;;2.70;;
21517;SDS011;61765;45.794;24.150;2024-03-02T04:14:55;4.82;;;2.83;;
21517;SDS011;61765;45.794;24.150;2024-03-02T04:23:03;8.05;;;2.95;;
21517;SDS011;61765;45.794;24.150;2024-03-02T04:31:09;7.18;;;3.17;;
21517;SDS011;61765;45.794;24.150;2024-03-02T04:39:18;7.93;;;3.08;;
21517;SDS011;61765;45.794;24.150;2024-03-02T04:47:24;8.15;;;2.55;;
21517;SDS011;61765;45.794;24.150;2024-03-02T04:55:32;4.35;;;2.40;;
21517;SDS011;61765;45.794;24.150;2024-03-02T05:04:05;6.47;;;2.20;;
21517;SDS011;61765;45.794;24.150;2024-03-02T05:12:16;8.20;;;3.10;;
21517;SDS011;61765;45.794;24.150;2024-03-02T05:20:49;9.73;;;3.72;;
21517;SDS011;61765;45.794;24.150;2024-03-02T05:28:57;9.18;;;3.38;;
21517;SDS011;61765;45.794;24.150;2024-03-02T05:37:03;8.15;;;3.10;;
21517;SDS011;61765;45.794;24.150;2024-03-02T05:45:11;6.32;;;2.70;;
21517;SDS011;61765;45.794;24.150;2024-03-02T05:53:19;19.60;;;3.75;;
21517;SDS011;61765;45.794;24.150;2024-03-02T06:01:27;8.60;;;3.95;;
21517;SDS011;61765;45.794;24.150;2024-03-02T06:09:33;11.10;;;3.58;;
21517;SDS011;61765;45.794;24.150;2024-03-02T06:17:42;12.25;;;3.88;;
21517;SDS011;61765;45.794;24.150;2024-03-02T06:25:48;12.98;;;4.72;;
21517;SDS011;61765;45.794;24.150;2024-03-02T06:33:56;10.13;;;4.53;;
21517;SDS011;61765;45.794;24.150;2024-03-02T06:42:02;14.15;;;4.53;;
21517;SDS011;61765;45.794;24.150;2024-03-02T06:50:11;15.02;;;5.45;;
21517;SDS011;61765;45.794;24.150;2024-03-02T06:58:17;21.55;;;6.32;;
21517;SDS011;61765;45.794;24.150;2024-03-02T07:06:25;12.13;;;7.05;;
21517;SDS011;61765;45.794;24.150;2024-03-02T07:14:31;14.80;;;5.03;;
21517;SDS011;61765;45.794;24.150;2024-03-02T07:22:52;9.70;;;3.97;;
21517;SDS011;61765;45.794;24.150;2024-03-02T07:30:58;8.38;;;4.45;;
21517;SDS011;61765;45.794;24.150;2024-03-02T07:39:06;8.75;;;4.10;;
21517;SDS011;61765;45.794;24.150;2024-03-02T07:47:12;8.63;;;3.67;;
21517;SDS011;61765;45.794;24.150;2024-03-02T07:55:21;13.70;;;4.38;;
21517;SDS011;61765;45.794;24.150;2024-03-02T08:03:27;9.52;;;4.05;;
21517;SDS011;61765;45.794;24.150;2024-03-02T08:11:37;11.70;;;3.95;;
21517;SDS011;61765;45.794;24.150;2024-03-02T08:19:42;12.93;;;4.38;;
21517;SDS011;61765;45.794;24.150;2024-03-02T08:27:52;11.30;;;4.50;;
21517;SDS011;61765;45.794;24.150;2024-03-02T08:35:59;15.18;;;3.83;;
21517;SDS011;61765;45.794;24.150;2024-03-02T08:44:08;17.48;;;4.82;;
21517;SDS011;61765;45.794;24.150;2024-03-02T08:52:14;13.82;;;4.50;;
21517;SDS011;61765;45.794;24.150;2024-03-02T09:00:22;12.85;;;3.85;;
21517;SDS011;61765;45.794;24.150;2024-03-02T09:08:29;6.47;;;3.03;;
21517;SDS011;61765;45.794;24.150;2024-03-02T09:16:39;6.72;;;1.83;;
21517;SDS011;61765;45.794;24.150;2024-03-02T09:24:46;19.67;;;9.48;;
21517;SDS011;61765;45.794;24.150;2024-03-02T09:32:54;4.88;;;2.33;;
21517;SDS011;61765;45.794;24.150;2024-03-02T09:41:03;10.30;;;2.97;;
21517;SDS011;61765;45.794;24.150;2024-03-02T09:49:12;6.10;;;2.80;;
21517;SDS011;61765;45.794;24.150;2024-03-02T09:57:18;6.15;;;2.45;;
21517;SDS011;61765;45.794;24.150;2024-03-02T10:05:27;6.05;;;2.53;;
21517;SDS011;61765;45.794;24.150;2024-03-02T10:13:33;10.35;;;2.60;;
21517;SDS011;61765;45.794;24.150;2024-03-02T10:21:42;9.45;;;3.08;;
21517;SDS011;61765;45.794;24.150;2024-03-02T10:29:48;8.80;;;2.90;;
21517;SDS011;61765;45.794;24.150;2024-03-02T10:37:57;4.97;;;2.50;;
21517;SDS011;61765;45.794;24.150;2024-03-02T10:46:05;9.07;;;2.85;;
21517;SDS011;61765;45.794;24.150;2024-03-02T10:54:14;20.63;;;7.80;;
21517;SDS011;61765;45.794;24.150;2024-03-02T11:02:20;10.13;;;3.50;;
21517;SDS011;61765;45.794;24.150;2024-03-02T11:10:30;16.08;;;7.72;;
21517;SDS011;61765;45.794;24.150;2024-03-02T11:18:41;4.93;;;2.38;;
21517;SDS011;61765;45.794;24.150;2024-03-02T11:26:51;6.45;;;2.60;;
21517;SDS011;61765;45.794;24.150;2024-03-02T11:34:57;11.18;;;3.08;;
21517;SDS011;61765;45.794;24.150;2024-03-02T11:43:06;11.27;;;3.35;;
21517;SDS011;61765;45.794;24.150;2024-03-02T11:51:13;20.98;;;8.07;;
21517;SDS011;61765;45.794;24.150;2024-03-02T11:59:21;5.53;;;2.97;;
21517;SDS011;61765;45.794;24.150;2024-03-02T12:07:28;7.18;;;3.35;;
21517;SDS011;61765;45.794;24.150;2024-03-02T12:15:37;9.82;;;3.60;;
21517;SDS011;61765;45.794;24.150;2024-03-02T12:23:44;6.47;;;3.25;;
21517;SDS011;61765;45.794;24.150;2024-03-02T12:31:53;7.90;;;3.63;;
21517;SDS011;61765;45.794;24.150;2024-03-02T12:39:59;9.20;;;2.75;;
21517;SDS011;61765;45.794;24.150;2024-03-02T12:48:08;8.90;;;4.10;;
21517;SDS011;61765;45.794;24.150;2024-03-02T12:56:14;6.55;;;3.05;;
21517;SDS011;61765;45.794;24.150;2024-03-02T13:04:26;7.50;;;3.53;;
21517;SDS011;61765;45.794;24.150;2024-03-02T13:12:33;6.00;;;3.05;;
21517;SDS011;61765;45.794;24.150;2024-03-02T13:20:43;9.93;;;3.20;;
21517;SDS011;61765;45.794;24.150;2024-03-02T13:28:48;7.93;;;3.90;;
21517;SDS011;61765;45.794;24.150;2024-03-02T13:36:57;4.57;;;2.75;;
21517;SDS011;61765;45.794;24.150;2024-03-02T13:45:04;5.25;;;3.40;;
21517;SDS011;61765;45.794;24.150;2024-03-02T13:53:13;8.77;;;3.53;;
21517;SDS011;61765;45.794;24.150;2024-03-02T14:01:19;6.85;;;3.20;;
21517;SDS011;61765;45.794;24.150;2024-03-02T14:09:28;8.60;;;3.50;;
21517;SDS011;61765;45.794;24.150;2024-03-02T14:17:34;6.60;;;2.95;;
21517;SDS011;61765;45.794;24.150;2024-03-02T14:25:43;8.32;;;3.03;;
21517;SDS011;61765;45.794;24.150;2024-03-02T14:33:49;5.93;;;3.22;;
21517;SDS011;61765;45.794;24.150;2024-03-02T14:41:59;9.88;;;3.85;;
21517;SDS011;61765;45.794;24.150;2024-03-02T14:50:05;7.18;;;3.38;;
21517;SDS011;61765;45.794;24.150;2024-03-02T14:58:14;4.80;;;3.35;;
21517;SDS011;61765;45.794;24.150;2024-03-02T15:06:21;6.57;;;3.33;;
21517;SDS011;61765;45.794;24.150;2024-03-02T15:14:30;7.75;;;4.13;;
21517;SDS011;61765;45.794;24.150;2024-03-02T15:22:35;17.20;;;6.97;;
21517;SDS011;61765;45.794;24.150;2024-03-02T15:30:44;15.05;;;8.63;;
21517;SDS011;61765;45.794;24.150;2024-03-02T15:38:51;13.32;;;7.35;;
21517;SDS011;61765;45.794;24.150;2024-03-02T15:47:01;12.18;;;6.47;;
21517;SDS011;61765;45.794;24.150;2024-03-02T15:55:07;12.98;;;5.70;;
21517;SDS011;61765;45.794;24.150;2024-03-02T16:03:16;14.52;;;6.63;;
21517;SDS011;61765;45.794;24.150;2024-03-02T16:11:22;13.63;;;7.32;;
21517;SDS011;61765;45.794;24.150;2024-03-02T16:19:31;15.90;;;8.80;;
21517;SDS011;61765;45.794;24.150;2024-03-02T16:27:41;15.68;;;8.73;;
21517;SDS011;61765;45.794;24.150;2024-03-02T16:35:49;21.17;;;11.05;;
21517;SDS011;61765;45.794;24.150;2024-03-02T16:43:55;18.58;;;11.45;;
21517;SDS011;61765;45.794;24.150;2024-03-02T16:52:04;22.67;;;13.65;;
21517;SDS011;61765;45.794;24.150;2024-03-02T17:00:11;16.65;;;10.35;;
21517;SDS011;61765;45.794;24.150;2024-03-02T17:08:20;16.63;;;9.40;;
21517;SDS011;61765;45.794;24.150;2024-03-02T17:16:26;18.90;;;10.75;;
21517;SDS011;61765;45.794;24.150;2024-03-02T17:24:34;16.80;;;11.15;;
21517;SDS011;61765;45.794;24.150;2024-03-02T17:32:40;18.95;;;10.75;;
21517;SDS011;61765;45.794;24.150;2024-03-02T17:40:48;18.60;;;10.27;;
21517;SDS011;61765;45.794;24.150;2024-03-02T17:48:54;14.77;;;9.57;;
21517;SDS011;61765;45.794;24.150;2024-03-02T17:57:03;15.63;;;10.57;;
21517;SDS011;61765;45.794;24.150;2024-03-02T18:05:09;14.95;;;9.40;;
21517;SDS011;61765;45.794;24.150;2024-03-02T18:13:17;15.55;;;10.65;;
21517;SDS011;61765;45.794;24.150;2024-03-02T18:21:23;18.65;;;11.35;;
21517;SDS011;61765;45.794;24.150;2024-03-02T18:29:32;25.08;;;12.68;;
21517;SDS011;61765;45.794;24.150;2024-03-02T18:37:38;30.13;;;18.83;;
21517;SDS011;61765;45.794;24.150;2024-03-02T18:45:49;23.90;;;13.45;;
21517;SDS011;61765;45.794;24.150;2024-03-02T18:53:57;28.02;;;15.60;;
21517;SDS011;61765;45.794;24.150;2024-03-02T19:02:06;24.45;;;14.55;;
21517;SDS011;61765;45.794;24.150;2024-03-02T19:10:12;22.35;;;14.98;;
21517;SDS011;61765;45.794;24.150;2024-03-02T19:18:20;22.73;;;14.18;;
21517;SDS011;61765;45.794;24.150;2024-03-02T19:26:26;23.95;;;14.65;;
21517;SDS011;61765;45.794;24.150;2024-03-02T19:34:34;32.55;;;15.00;;
21517;SDS011;61765;45.794;24.150;2024-03-02T19:42:40;31.25;;;15.90;;
21517;SDS011;61765;45.794;24.150;2024-03-02T19:50:50;30.20;;;16.00;;
21517;SDS011;61765;45.794;24.150;2024-03-02T19:58:56;29.23;;;16.70;;
21517;SDS011;61765;45.794;24.150;2024-03-02T20:07:05;29.50;;;17.60;;
21517;SDS011;61765;45.794;24.150;2024-03-02T20:15:12;26.98;;;17.33;;
21517;SDS011;61765;45.794;24.150;2024-03-02T20:23:23;29.48;;;16.90;;
21517;SDS011;61765;45.794;24.150;2024-03-02T20:31:31;29.80;;;16.75;;
21517;SDS011;61765;45.794;24.150;2024-03-02T20:39:40;31.00;;;18.42;;
21517;SDS011;61765;45.794;24.150;2024-03-02T20:47:46;30.80;;;17.65;;
21517;SDS011;61765;45.794;24.150;2024-03-02T20:55:55;27.13;;;17.05;;
21517;SDS011;61765;45.794;24.150;2024-03-02T21:04:01;37.38;;;20.25;;
21517;SDS011;61765;45.794;24.150;2024-03-02T21:12:09;33.40;;;19.40;;
21517;SDS011;61765;45.794;24.150;2024-03-02T21:20:15;37.63;;;20.63;;
21517;SDS011;61765;45.794;24.150;2024-03-02T21:28:24;36.47;;;21.23;;
21517;SDS011;61765;45.794;24.150;2024-03-02T21:36:30;37.88;;;19.73;;
21517;SDS011;61765;45.794;24.150;2024-03-02T21:44:38;50.95;;;26.88;;
21517;SDS011;61765;45.794;24.150;2024-03-02T21:52:44;50.88;;;27.67;;
21517;SDS011;61765;45.794;24.150;2024-03-02T22:00:58;53.33;;;27.40;;
21517;SDS011;61765;45.794;24.150;2024-03-02T22:09:03;54.33;;;29.58;;
21517;SDS011;61765;45.794;24.150;2024-03-02T22:17:12;49.42;;;30.10;;
21517;SDS011;61765;45.794;24.150;2024-03-02T22:25:18;56.03;;;28.95;;
21517;SDS011;61765;45.794;24.150;2024-03-02T22:33:27;52.50;;;24.08;;
21517;SDS011;61765;45.794;24.150;2024-03-02T22:41:33;36.97;;;20.40;;
21517;SDS011;61765;45.794;24.150;2024-03-02T22:49:41;30.35;;;16.13;;
21517;SDS011;61765;45.794;24.150;2024-03-02T22:57:47;30.85;;;13.30;;
21517;SDS011;61765;45.794;24.150;2024-03-02T23:05:55;19.33;;;10.98;;
21517;SDS011;61765;45.794;24.150;2024-03-02T23:14:01;18.88;;;10.20;;
21517;SDS011;61765;45.794;24.150;2024-03-02T23:22:09;22.77;;;11.65;;
21517;SDS011;61765;45.794;24.150;2024-03-02T23:30:15;19.50;;;9.38;;
21517;SDS011;61765;45.794;24.150;2024-03-02T23:38:26;15.70;;;7.55;;
21517;SDS011;61765;45.794;24.150;2024-03-02T23:46:32;12.38;;;6.85;;
21517;SDS011;61765;45.794;24.150;2024-03-02T23:54:40;20.08;;;10.52;;
